createdAt,value
2019-05-02T00:01:19.268Z,16.00
2019-05-02T00:03:48.519Z,16.93
2019-05-02T00:06:18.120Z,14.78
2019-05-02T00:08:47.898Z,15.13
2019-05-02T00:11:17.367Z,16.15
2019-05-02T00:13:47.583Z,14.13
2019-05-02T00:16:16.857Z,18.35
2019-05-02T00:18:46.448Z,16.93
2019-05-02T00:21:16.061Z,18.35
2019-05-02T00:23:45.288Z,17.07
2019-05-02T00:26:14.752Z,16.57
2019-05-02T00:28:47.945Z,16.55
2019-05-02T00:31:17.634Z,19.12
2019-05-02T00:33:46.830Z,19.80
2019-05-02T00:36:16.003Z,19.12
2019-05-02T00:38:45.164Z,19.25
2019-05-02T00:41:14.423Z,18.02
2019-05-02T00:43:43.650Z,18.80
2019-05-02T00:46:12.992Z,17.85
2019-05-02T00:48:47.053Z,16.02
2019-05-02T00:51:16.275Z,14.18
2019-05-02T00:53:48.451Z,13.43
2019-05-02T00:56:16.433Z,16.05
2019-05-02T00:58:45.583Z,14.95
2019-05-02T01:01:33.883Z,15.45
2019-05-02T01:04:08.715Z,14.68
2019-05-02T01:06:37.906Z,13.40
2019-05-02T01:09:11.174Z,20.72
2019-05-02T01:11:39.491Z,18.60
2019-05-02T01:14:08.743Z,16.27
2019-05-02T01:16:37.961Z,16.95
2019-05-02T01:19:07.114Z,17.82
2019-05-02T01:21:38.848Z,15.53
2019-05-02T01:24:07.234Z,12.68
2019-05-02T01:26:40.150Z,19.32
2019-05-02T01:29:14.890Z,16.05
2019-05-02T01:32:15.171Z,18.80
2019-05-02T01:35:06.125Z,18.60
2019-05-02T01:37:54.893Z,14.65
2019-05-02T01:40:24.085Z,16.02
2019-05-02T01:42:56.856Z,16.00
2019-05-02T01:45:26.075Z,16.73
2019-05-02T01:47:55.223Z,19.65
2019-05-02T01:50:24.475Z,15.30
2019-05-02T01:52:58.264Z,17.48
2019-05-02T01:55:24.555Z,13.30
2019-05-02T01:57:53.733Z,18.55
2019-05-02T02:00:22.898Z,14.43
2019-05-02T02:02:52.044Z,18.57
2019-05-02T02:05:21.238Z,16.48
2019-05-02T02:07:50.760Z,18.12
2019-05-02T02:10:21.311Z,20.20
2019-05-02T02:13:03.610Z,12.90
2019-05-02T02:15:25.198Z,15.90
2019-05-02T02:17:52.725Z,14.98
2019-05-02T02:20:23.721Z,16.15
2019-05-02T02:23:01.310Z,15.72
2019-05-02T02:25:44.037Z,16.85
2019-05-02T02:28:13.226Z,14.93
2019-05-02T02:30:42.437Z,10.25
2019-05-02T02:33:11.636Z,16.77
2019-05-02T02:35:49.430Z,19.20
2019-05-02T02:38:11.810Z,16.35
2019-05-02T02:40:40.992Z,13.28
2019-05-02T02:43:30.018Z,17.30
2019-05-02T02:46:02.012Z,15.80
2019-05-02T02:48:33.854Z,14.60
2019-05-02T02:51:03.176Z,14.83
2019-05-02T02:53:32.706Z,12.43
2019-05-02T02:56:04.139Z,16.32
2019-05-02T02:58:44.653Z,19.82
2019-05-02T03:01:05.448Z,16.37
2019-05-02T03:03:35.772Z,12.98
2019-05-02T03:06:07.806Z,14.07
2019-05-02T03:08:44.661Z,15.32
2019-05-02T03:11:07.628Z,16.57
2019-05-02T03:13:53.383Z,15.58
2019-05-02T03:16:24.354Z,16.52
2019-05-02T03:18:53.525Z,14.98
2019-05-02T03:21:22.818Z,15.48
2019-05-02T03:24:01.356Z,18.07
2019-05-02T03:26:23.020Z,15.40
2019-05-02T03:28:58.227Z,18.82
2019-05-02T03:31:29.078Z,16.10
2019-05-02T03:33:59.729Z,13.58
2019-05-02T03:36:30.104Z,16.32
2019-05-02T03:38:56.345Z,18.42
2019-05-02T03:41:25.829Z,16.97
2019-05-02T03:44:09.689Z,16.55
2019-05-02T03:46:25.949Z,19.40
2019-05-02T03:49:05.414Z,19.05
2019-05-02T03:51:26.007Z,18.65
2019-05-02T03:54:06.355Z,17.85
2019-05-02T03:56:26.163Z,20.60
2019-05-02T03:58:58.131Z,16.17
2019-05-02T04:01:27.322Z,17.87
2019-05-02T04:03:57.332Z,18.95
2019-05-02T04:06:26.825Z,22.70
2019-05-02T04:08:59.839Z,22.80
2019-05-02T04:11:37.861Z,21.35
2019-05-02T04:13:58.499Z,21.27
2019-05-02T04:16:30.236Z,21.35
2019-05-02T04:19:04.954Z,21.95
2019-05-02T04:21:35.735Z,20.30
2019-05-02T04:24:13.677Z,25.45
2019-05-02T04:26:37.302Z,22.67
2019-05-02T04:29:06.456Z,22.65
2019-05-02T04:31:35.691Z,18.75
2019-05-02T04:34:14.111Z,18.35
2019-05-02T04:36:35.822Z,25.85
2019-05-02T04:39:15.053Z,20.45
2019-05-02T04:41:39.173Z,22.13
2019-05-02T04:44:09.132Z,22.07
2019-05-02T04:46:38.851Z,22.98
2019-05-02T04:49:09.151Z,19.98
2019-05-02T04:51:38.752Z,19.50
2019-05-02T04:54:09.262Z,20.68
2019-05-02T04:56:48.258Z,23.38
2019-05-02T04:59:17.874Z,19.92
2019-05-02T05:01:49.205Z,22.60
2019-05-02T05:04:11.706Z,21.77
2019-05-02T05:06:46.651Z,18.37
2019-05-02T05:09:14.844Z,22.32
2019-05-02T05:11:42.678Z,21.17
2019-05-02T05:14:11.827Z,23.62
2019-05-02T05:16:45.501Z,23.57
2019-05-02T05:19:11.862Z,23.18
2019-05-02T05:21:41.071Z,22.65
2019-05-02T05:24:32.716Z,20.32
2019-05-02T05:27:00.296Z,24.25
2019-05-02T05:29:29.540Z,23.25
2019-05-02T05:32:05.247Z,22.90
2019-05-02T05:34:32.617Z,24.77
2019-05-02T05:37:03.498Z,25.97
2019-05-02T05:39:31.466Z,27.73
2019-05-02T05:42:00.635Z,24.52
2019-05-02T05:44:32.620Z,23.65
2019-05-02T05:47:00.796Z,28.32
2019-05-02T05:49:30.009Z,27.73
2019-05-02T05:52:02.224Z,29.67
2019-05-02T05:54:32.947Z,27.73
2019-05-02T05:57:01.111Z,30.40
2019-05-02T05:59:32.030Z,27.50
2019-05-02T06:02:05.377Z,27.52
2019-05-02T06:04:33.346Z,23.95
2019-05-02T06:07:04.066Z,23.95
2019-05-02T06:09:33.290Z,31.05
2019-05-02T06:12:02.443Z,27.15
2019-05-02T06:14:34.257Z,27.15
2019-05-02T06:17:02.567Z,27.40
2019-05-02T06:19:31.729Z,29.65
2019-05-02T06:22:00.935Z,25.92
2019-05-02T06:24:30.134Z,26.68
2019-05-02T06:26:59.361Z,26.87
2019-05-02T06:29:28.631Z,27.82
2019-05-02T06:32:02.428Z,26.00
2019-05-02T06:34:31.599Z,25.48
2019-05-02T06:37:01.301Z,25.70
2019-05-02T06:39:31.939Z,26.25
2019-05-02T06:42:03.109Z,29.92
2019-05-02T06:44:32.348Z,27.30
2019-05-02T06:47:04.267Z,29.18
2019-05-02T06:49:32.821Z,26.65
2019-05-02T06:52:02.059Z,25.57
2019-05-02T06:54:31.241Z,29.18
2019-05-02T06:57:00.456Z,25.62
2019-05-02T06:59:29.694Z,26.48
2019-05-02T07:01:59.186Z,23.45
2019-05-02T07:04:28.498Z,25.30
2019-05-02T07:06:59.233Z,22.60
2019-05-02T07:09:39.957Z,20.12
2019-05-02T07:12:01.508Z,20.92
2019-05-02T07:14:30.432Z,19.35
2019-05-02T07:17:26.513Z,21.23
2019-05-02T07:19:58.862Z,23.10
2019-05-02T07:22:28.307Z,23.37
2019-05-02T07:24:57.566Z,19.67
2019-05-02T07:27:28.301Z,21.17
2019-05-02T07:29:59.397Z,20.68
2019-05-02T07:32:28.783Z,20.75
2019-05-02T07:34:57.958Z,21.23
2019-05-02T07:37:27.237Z,22.02
2019-05-02T07:39:56.491Z,21.00
2019-05-02T07:42:25.697Z,23.77
2019-05-02T07:44:54.901Z,21.00
2019-05-02T07:47:24.048Z,20.62
2019-05-02T07:49:53.187Z,22.07
2019-05-02T07:52:22.393Z,24.12
2019-05-02T07:54:51.539Z,20.70
2019-05-02T07:57:20.681Z,18.80
2019-05-02T07:59:50.050Z,19.80
2019-05-02T08:02:20.258Z,22.15
2019-05-02T08:04:50.187Z,20.68
2019-05-02T08:07:21.215Z,21.85
2019-05-02T08:09:50.263Z,22.70
2019-05-02T08:12:19.492Z,22.40
2019-05-02T08:14:48.760Z,18.33
2019-05-02T08:17:19.298Z,20.20
2019-05-02T08:19:48.739Z,21.70
2019-05-02T08:22:17.924Z,20.67
2019-05-02T08:24:47.170Z,21.70
2019-05-02T08:27:41.370Z,22.33
2019-05-02T08:30:18.334Z,21.00
2019-05-02T08:32:47.606Z,20.97
2019-05-02T08:35:16.821Z,20.60
2019-05-02T08:37:45.987Z,20.17
2019-05-02T08:40:15.594Z,21.47
2019-05-02T08:42:44.805Z,20.30
2019-05-02T08:45:14.078Z,19.43
2019-05-02T08:47:43.253Z,18.30
2019-05-02T08:50:13.080Z,17.93
2019-05-02T08:52:44.073Z,17.23
2019-05-02T08:55:13.230Z,20.97
2019-05-02T08:57:42.376Z,19.50
2019-05-02T09:00:13.419Z,21.07
2019-05-02T09:02:42.877Z,23.10
2019-05-02T09:05:12.522Z,20.50
2019-05-02T09:07:42.999Z,19.37
2019-05-02T09:10:13.151Z,17.13
2019-05-02T09:12:45.460Z,19.50
2019-05-02T09:15:13.850Z,20.07
2019-05-02T09:17:51.757Z,22.77
2019-05-02T09:20:18.722Z,21.00
2019-05-02T09:22:46.537Z,18.10
2019-05-02T09:25:16.817Z,19.60
2019-05-02T09:27:45.966Z,19.63
2019-05-02T09:30:17.188Z,22.90
2019-05-02T09:32:46.023Z,19.70
2019-05-02T09:35:15.170Z,20.37
2019-05-02T09:37:44.371Z,17.83
2019-05-02T09:40:16.724Z,19.17
2019-05-02T09:42:47.597Z,20.70
2019-05-02T09:45:22.717Z,18.80
2019-05-02T09:47:59.693Z,17.60
2019-05-02T09:50:29.485Z,17.70
2019-05-02T09:52:54.158Z,17.60
2019-05-02T09:55:23.400Z,18.20
2019-05-02T09:57:52.555Z,20.30
2019-05-02T10:00:44.323Z,20.87
2019-05-02T10:03:14.243Z,15.23
2019-05-02T10:05:43.475Z,20.00
2019-05-02T10:08:14.024Z,18.93
2019-05-02T10:10:45.860Z,19.80
2019-05-02T10:13:14.538Z,18.67
2019-05-02T10:15:43.908Z,17.97
2019-05-02T10:18:14.549Z,17.70
2019-05-02T10:20:44.388Z,17.37
2019-05-02T10:23:19.398Z,17.63
2019-05-02T10:25:46.923Z,16.27
2019-05-02T10:28:16.347Z,14.40
2019-05-02T10:30:47.367Z,16.10
2019-05-02T10:33:16.799Z,16.20
2019-05-02T10:35:47.649Z,14.60
2019-05-02T10:38:19.444Z,14.70
2019-05-02T10:40:48.422Z,17.17
2019-05-02T10:43:18.591Z,16.77
2019-05-02T10:45:52.876Z,18.83
2019-05-02T10:48:28.030Z,17.63
2019-05-02T10:50:53.962Z,18.50
2019-05-02T10:53:23.203Z,15.50
2019-05-02T10:55:52.544Z,19.20
2019-05-02T10:58:23.955Z,17.53
2019-05-02T11:00:53.094Z,16.53
2019-05-02T11:03:47.535Z,16.20
2019-05-02T11:06:17.226Z,17.10
2019-05-02T11:08:46.453Z,15.57
2019-05-02T11:11:15.906Z,15.80
2019-05-02T11:14:01.031Z,14.50
2019-05-02T11:16:32.454Z,14.97
2019-05-02T11:19:04.595Z,16.13
2019-05-02T11:21:33.872Z,17.27
2019-05-02T11:24:03.026Z,18.47
2019-05-02T11:26:32.592Z,16.47
2019-05-02T11:29:02.928Z,17.77
2019-05-02T11:31:32.782Z,18.67
2019-05-02T11:34:02.083Z,16.83
2019-05-02T11:36:32.891Z,16.23
2019-05-02T11:39:14.545Z,18.10
2019-05-02T11:41:33.295Z,18.60
2019-05-02T11:44:02.952Z,18.73
2019-05-02T11:55:58.319Z,17.70
2019-05-02T11:58:25.689Z,27.00
2019-05-02T12:00:54.951Z,20.60
2019-05-02T12:03:42.305Z,22.43
2019-05-02T12:06:18.986Z,21.77
2019-05-02T12:08:44.987Z,20.33
2019-05-02T12:11:17.588Z,24.13
2019-05-02T12:13:47.409Z,21.80
2019-05-02T12:16:16.912Z,25.10
2019-05-02T12:18:46.490Z,28.63
2019-05-02T12:21:16.950Z,25.33
2019-05-02T12:23:46.114Z,25.80
2019-05-02T12:26:15.458Z,26.10
2019-05-02T12:28:44.614Z,25.10
2019-05-02T12:31:27.883Z,25.10
2019-05-02T12:33:58.410Z,24.43
2019-05-02T12:36:27.639Z,26.20
2019-05-02T12:38:56.825Z,23.30
2019-05-02T12:41:26.065Z,22.47
2019-05-02T12:43:55.214Z,21.60
2019-05-02T12:46:24.480Z,22.47
2019-05-02T12:48:53.662Z,20.23
2019-05-02T12:51:24.933Z,20.50
2019-05-02T12:53:54.127Z,19.77
2019-05-02T12:56:23.288Z,18.80
2019-05-02T12:58:53.107Z,23.63
2019-05-02T13:01:22.722Z,25.50
2019-05-02T13:04:00.314Z,24.60
2019-05-02T13:06:29.511Z,15.60
2019-05-02T13:08:58.739Z,18.40
2019-05-02T13:11:45.639Z,23.40
2019-05-02T13:14:19.118Z,21.53
2019-05-02T13:16:45.705Z,19.20
2019-05-02T13:19:15.499Z,20.27
2019-05-02T13:22:06.444Z,19.57
2019-05-02T13:24:39.029Z,19.60
2019-05-02T13:27:12.620Z,20.13
2019-05-02T13:29:42.863Z,19.27
2019-05-02T13:32:25.411Z,20.63
2019-05-02T13:35:02.103Z,15.97
2019-05-02T13:37:31.894Z,11.10
2019-05-02T13:40:26.815Z,15.00
2019-05-02T13:42:56.145Z,11.40
2019-05-02T13:45:50.136Z,13.60
2019-05-02T13:48:19.405Z,14.55
2019-05-02T13:50:48.630Z,13.35
2019-05-02T13:53:18.034Z,14.95
2019-05-02T13:55:53.624Z,9.40
2019-05-02T13:58:28.970Z,11.90
2019-05-02T14:00:54.362Z,9.88
2019-05-02T14:03:23.828Z,11.60
2019-05-02T14:05:53.877Z,12.55
2019-05-02T14:08:37.054Z,11.60
2019-05-02T14:11:24.315Z,11.10
2019-05-02T14:13:53.581Z,16.02
2019-05-02T14:16:22.887Z,12.98
2019-05-02T14:18:52.997Z,14.03
2019-05-02T14:21:22.871Z,16.73
2019-05-02T14:23:52.040Z,16.60
2019-05-02T14:26:28.199Z,12.90
2019-05-02T14:28:53.287Z,15.40
2019-05-02T14:31:22.719Z,13.53
2019-05-02T14:34:09.656Z,12.67
2019-05-02T14:36:39.259Z,13.63
2019-05-02T14:39:11.823Z,13.50
2019-05-02T14:41:44.019Z,14.73
2019-05-02T14:44:12.056Z,13.03
2019-05-02T14:46:42.524Z,12.57
2019-05-02T14:49:12.157Z,14.20
2019-05-02T14:51:41.825Z,12.67
2019-05-02T14:54:12.090Z,11.73
2019-05-02T14:56:52.383Z,11.43
2019-05-02T14:59:23.186Z,10.30
2019-05-02T15:01:57.778Z,11.80
2019-05-02T15:04:26.923Z,13.30
2019-05-02T15:06:56.088Z,11.93
2019-05-02T15:09:26.943Z,11.63
2019-05-02T15:11:59.075Z,11.90
2019-05-02T15:14:32.663Z,11.53
2019-05-02T15:17:02.607Z,13.30
2019-05-02T15:19:33.013Z,11.43
2019-05-02T15:22:02.989Z,11.48
2019-05-02T15:24:36.189Z,10.10
2019-05-02T15:27:11.488Z,11.30
2019-05-02T15:29:34.405Z,9.90
2019-05-02T15:32:22.293Z,10.10
2019-05-02T15:35:12.822Z,10.03
2019-05-02T15:37:41.977Z,8.43
2019-05-02T15:40:43.446Z,11.23
2019-05-02T15:42:52.126Z,8.45
2019-05-02T15:45:23.787Z,9.07
2019-05-02T15:47:52.856Z,9.40
2019-05-02T15:50:25.583Z,11.00
2019-05-02T15:53:03.291Z,10.53
2019-05-02T15:55:33.896Z,10.05
2019-05-02T15:58:02.273Z,11.37
2019-05-02T16:00:35.082Z,10.67
2019-05-02T16:03:04.677Z,9.17
2019-05-02T16:05:36.518Z,9.40
2019-05-02T16:08:08.546Z,7.60
2019-05-02T16:10:38.550Z,8.67
2019-05-02T16:13:08.576Z,9.83
2019-05-02T16:15:38.835Z,9.67
2019-05-02T16:18:08.075Z,8.67
2019-05-02T16:21:07.032Z,10.33
2019-05-02T16:23:32.945Z,10.90
2019-05-02T16:26:02.132Z,10.43
2019-05-02T16:28:32.441Z,10.67
2019-05-02T16:31:03.976Z,10.90
2019-05-02T16:33:33.193Z,10.17
2019-05-02T16:36:02.693Z,10.50
2019-05-02T16:38:34.885Z,8.33
2019-05-02T16:41:09.977Z,11.23
2019-05-02T16:43:34.009Z,11.27
2019-05-02T16:46:06.727Z,12.77
2019-05-02T16:48:37.598Z,9.80
2019-05-02T16:51:08.193Z,12.47
2019-05-02T16:53:36.176Z,10.13
2019-05-02T16:56:07.138Z,11.20
2019-05-02T16:58:37.990Z,14.27
2019-05-02T17:01:07.657Z,11.37
2019-05-02T17:03:36.916Z,12.85
2019-05-02T17:06:06.137Z,13.27
2019-05-02T17:08:58.484Z,12.43
2019-05-02T17:11:35.796Z,12.03
2019-05-02T17:14:07.085Z,14.20
2019-05-02T17:16:35.519Z,11.80
2019-05-02T17:19:04.914Z,12.50
2019-05-02T17:21:52.423Z,17.23
2019-05-02T17:24:05.386Z,15.70
2019-05-02T17:26:34.628Z,12.53
2019-05-02T17:29:04.620Z,11.70
2019-05-02T17:31:34.492Z,14.30
2019-05-02T17:34:07.206Z,12.63
2019-05-02T17:36:36.987Z,13.62
2019-05-02T17:39:09.620Z,14.10
2019-05-02T17:41:42.313Z,11.83
2019-05-02T17:44:12.936Z,12.30
2019-05-02T17:46:42.870Z,14.50
2019-05-02T17:49:14.102Z,15.57
2019-05-02T17:52:05.793Z,15.93
2019-05-02T17:54:34.201Z,16.90
2019-05-02T17:57:04.110Z,14.67
2019-05-02T17:59:37.551Z,13.25
2019-05-02T18:02:12.242Z,19.10
2019-05-02T18:04:46.575Z,14.07
2019-05-02T18:07:14.498Z,17.75
2019-05-02T18:09:44.447Z,14.90
2019-05-02T18:12:16.198Z,17.90
2019-05-02T18:14:46.277Z,15.53
2019-05-02T18:17:15.687Z,17.02
2019-05-02T18:19:45.451Z,18.30
2019-05-02T18:22:23.480Z,20.02
2019-05-02T18:24:47.214Z,16.57
2019-05-02T18:27:17.860Z,15.83
2019-05-02T18:29:47.144Z,15.23
2019-05-02T18:32:22.777Z,15.40
2019-05-02T18:34:52.068Z,18.10
2019-05-02T18:37:21.912Z,18.83
2019-05-02T18:39:55.745Z,18.63
2019-05-02T18:42:25.508Z,22.47
2019-05-02T18:44:55.774Z,19.07
2019-05-02T18:47:25.849Z,21.27
2019-05-02T18:50:04.293Z,19.40
2019-05-02T18:52:38.055Z,22.13
2019-05-02T18:55:01.872Z,18.35
2019-05-02T18:57:32.205Z,17.70
2019-05-02T19:00:02.636Z,18.47
2019-05-02T19:02:35.610Z,18.80
2019-05-02T19:05:06.088Z,17.32
2019-05-02T19:07:35.879Z,18.75
2019-05-02T19:10:07.440Z,16.83
2019-05-02T19:12:37.736Z,20.85
2019-05-02T19:15:10.865Z,19.77
2019-05-02T19:17:43.113Z,20.05
2019-05-02T19:20:35.262Z,20.48
2019-05-02T19:23:05.440Z,18.17
2019-05-02T19:25:35.632Z,19.65
2019-05-02T19:28:12.203Z,24.05
2019-05-02T19:30:42.438Z,23.60
2019-05-02T19:33:12.138Z,19.47
2019-05-02T19:35:45.326Z,19.77
2019-05-02T19:38:17.114Z,20.52
2019-05-02T19:40:43.710Z,20.72
2019-05-02T19:43:14.793Z,18.52
2019-05-02T19:45:45.750Z,16.90
2019-05-02T19:48:14.835Z,18.48
2019-05-02T19:50:44.336Z,15.08
2019-05-02T19:53:17.973Z,15.10
2019-05-02T19:55:44.513Z,17.00
2019-05-02T19:58:13.782Z,14.35
2019-05-02T20:00:46.154Z,16.95
2019-05-02T20:03:21.593Z,13.48
2019-05-02T20:05:48.209Z,11.38
2019-05-02T20:08:21.315Z,12.43
2019-05-02T20:10:49.240Z,16.30
2019-05-02T20:13:20.336Z,15.25
2019-05-02T20:15:57.086Z,13.70
2019-05-02T20:18:28.074Z,16.15
2019-05-02T20:21:25.986Z,13.13
2019-05-02T20:23:50.594Z,13.30
2019-05-02T20:26:21.971Z,11.10
2019-05-02T20:28:52.604Z,12.75
2019-05-02T20:31:21.818Z,11.83
2019-05-02T20:33:52.062Z,12.25
2019-05-02T20:36:22.754Z,12.00
2019-05-02T20:38:52.750Z,12.15
2019-05-02T20:41:22.512Z,10.68
2019-05-02T20:43:52.217Z,10.95
2019-05-02T20:46:21.971Z,8.00
2019-05-02T20:48:52.610Z,9.15
2019-05-02T20:51:22.719Z,12.15
2019-05-02T20:53:52.557Z,10.78
2019-05-02T20:56:23.060Z,10.18
2019-05-02T20:58:52.773Z,8.75
2019-05-02T21:01:22.309Z,10.00
2019-05-02T21:03:52.117Z,8.18
2019-05-02T21:06:40.859Z,10.23
2019-05-02T21:09:17.611Z,10.80
2019-05-02T21:12:02.023Z,7.17
2019-05-02T21:14:31.661Z,9.20
2019-05-02T21:17:02.144Z,11.55
2019-05-02T21:19:32.385Z,10.25
2019-05-02T21:22:06.421Z,8.18
2019-05-02T21:24:35.912Z,7.25
2019-05-02T21:27:05.588Z,8.25
2019-05-02T21:29:34.940Z,7.95
2019-05-02T21:32:04.307Z,7.72
2019-05-02T21:34:33.656Z,8.88
2019-05-02T21:37:02.919Z,8.13
2019-05-02T21:39:32.232Z,7.53
2019-05-02T21:42:02.315Z,8.98
2019-05-02T21:44:31.914Z,10.78
2019-05-02T21:47:02.862Z,9.15
2019-05-02T21:49:56.212Z,8.90
2019-05-02T21:52:32.664Z,7.80
2019-05-02T21:55:14.959Z,7.37
2019-05-02T21:57:44.364Z,7.83
2019-05-02T22:00:22.165Z,7.28
2019-05-02T22:02:52.297Z,6.92
2019-05-02T22:05:22.228Z,6.33
2019-05-02T22:07:52.288Z,7.87
2019-05-02T22:10:22.713Z,7.87
2019-05-02T22:12:52.221Z,6.78
2019-05-02T22:15:21.964Z,4.55
2019-05-02T22:17:52.265Z,7.65
2019-05-02T22:20:22.961Z,9.05
2019-05-02T22:22:52.542Z,6.58
2019-05-02T22:25:22.214Z,7.10
2019-05-02T22:27:53.923Z,7.45
2019-05-02T22:30:22.673Z,7.08
2019-05-02T22:32:54.220Z,8.48
2019-05-02T22:35:23.047Z,5.75
2019-05-02T22:37:53.991Z,8.03
2019-05-02T22:40:23.376Z,7.60
2019-05-02T22:42:52.720Z,8.18
2019-05-02T22:45:22.070Z,7.05
2019-05-02T22:47:52.075Z,7.12
2019-05-02T22:50:22.037Z,4.83
2019-05-02T22:52:52.215Z,7.60
2019-05-02T22:55:22.588Z,6.45
2019-05-02T22:57:51.986Z,7.15
2019-05-02T23:00:21.712Z,6.92
2019-05-02T23:02:52.482Z,7.58
2019-05-02T23:05:22.018Z,7.55
2019-05-02T23:07:52.700Z,5.47
2019-05-02T23:10:22.448Z,7.10
2019-05-02T23:12:51.785Z,10.00
2019-05-02T23:15:21.682Z,6.78
2019-05-02T23:17:52.291Z,5.83
2019-05-02T23:20:24.236Z,5.08
2019-05-02T23:22:52.670Z,6.15
2019-05-02T23:25:32.078Z,5.90
2019-05-02T23:28:05.197Z,5.40
2019-05-02T23:30:34.577Z,5.70
2019-05-02T23:33:03.867Z,5.47
2019-05-02T23:35:34.307Z,9.68
2019-05-02T23:38:03.828Z,5.97
2019-05-02T23:40:33.079Z,6.65
2019-05-02T23:43:02.425Z,5.92
2019-05-02T23:45:34.062Z,5.65
2019-05-02T23:48:03.800Z,6.20
2019-05-02T23:50:33.076Z,6.33
2019-05-02T23:53:02.436Z,6.70
2019-05-02T23:55:32.196Z,7.20
2019-05-02T23:58:02.935Z,5.72
